メインページ
METAR-TAF:

METAR-TAF

空港 :

トロント・ピアソン国際空港

トロント, オンタリオ州, カナダ

緯度: 43-40N, 経度: 079-38W, 海抜: 173m

現時点の気象観測

当レポートは32分前の11:00(UTC)に作成
西の風 12kt
気温 -4°C
湿度 63%
気圧 1028 hPa
視程: 24.1km
高度4000ftの雲はほとんどない
高度6100ftの千切れ雲あり

METAR: CYYZ 141100Z 26012KT 15SM FEW040 BKN061 M04/M10 A3036 RMK CU1SC6 CU TR SLP292

時間: 06:32 (11:32 UTC)

予報

当レポートは2時間54分前の08:38(UTC)に作成
予報は14日の 09時(UTC)から 15日の 12時(UTC)まで有効
西/北西の風 10kt
視程: 10km
高度4000ftの雲は散在している
14日の 1200時(UTC)から
西の風 8kt
視程: 10km
高度3000ftの雲は散在している
高度6000ftの千切れ雲あり
14日の 1500時(UTC)から
変向風 3kt
視程: 10km
高度3000ftの千切れ雲あり
弱いにわか雪
14日の 2200時(UTC)から
北/北東の風 5kt
視程: 10km
高度3000ftの雲は散在している

TAF: CYYZ 140838Z 1409/1512 29010KT P6SM SCT040 FM141200 27008KT P6SM SCT030 BKN060 FM141500 VRB03KT P6SM -SHSN BKN030 FM142200 03005KT P6SM SCT030 RMK NXT FCST BY 141200Z

4,000以上の空港の気象観測と天気予報(METAR報とTAF報)

利用可能な観測所は地図上に黄色い丸と赤い丸で示す。

丸の上にカーソルを重ねると観測所名を参照できる。

次にクリックすると気象観測と天気予報を参照できる。

マップの切り替え:黒色「×」印の緑ボタンをクリックして拡大、「-」印の緑ボタンをクリックして縮小、緑色の三角印をクリックして隣りの地図に切り替え


METAR-TAF: